Aviation Digital Data Service (ADDS)

Output produced by METARs form (2155 UTC 19 February 2018)
found at http://www.aviationweather.gov/adds/metars/
 
FYWE 191800Z 23007KT CAVOK 26/M05 Q1020
TAF FYWE 192000Z 1921/2006 19005KT CAVOK
       
TAF FYGF 192000Z 1921/2006 33004KT 9999 -TSRA SCT035CB 
     PROB30 
     TEMPO 1923/2003 -RA SCT025 
     BECMG 2003/2005 22004KT NSW FEW025
       
FYWH 192100Z AUTO /////KT //// 21/M01 Q1023
TAF FYWH 191600Z 1918/2018 11004KT CAVOK 
     BECMG 1919/1921 25009KT 
       
FYKM 191800Z 00000KT 9999 FEW030CB 24/19 Q1015
FYKT 191800Z 19008KT CAVOK 31/M03 Q1015
TAF FYKT 191600Z 1918/2018 14006KT CAVOK
       
FYLZ 192100Z AUTO 19012KT //// // ////// 19/15 Q1012
TAF FYLZ 192000Z 1921/2006 19015KT CAVOK
       
FYML 192100Z AUTO 32002KT //// // ////// 32/05 Q1018
TAF FYOA 192000Z 1921/2006 14005KT CAVOK
       
TAF FYOG 191400Z 1915/1924 18016KT CAVOK
       
TAF FYRU 192000Z 1921/2006 30004KT 9999 -TSRA SCT035CB 
     PROB30 
     TEMPO 1923/2003 -RA SCT030 
     BECMG 2003/2005 04003KT NSW FEW025
       
FYWB 192100Z AUTO 00000KT //// 17/14 Q1014
TAF FYWB 191600Z 1918/2018 20012KT CAVOK 
     BECMG 1920/1922 9999 BKN020 
     TEMPO 1922/2004 04003KT 0600 FG OVC006 
     BECMG 2005/2007 20004KT 9999 BKN010